createdAt,value
2022-08-22T00:00:30.019Z,17.45
2022-08-22T00:03:09.241Z,17.68
2022-08-22T00:03:12.459Z,17.70
2022-08-22T00:03:40.277Z,17.42
2022-08-22T00:07:08.465Z,17.39
2022-08-22T00:10:35.613Z,17.38
2022-08-22T00:13:24.994Z,17.39
2022-08-22T00:16:45.485Z,17.37
2022-08-22T00:19:28.405Z,17.35
2022-08-22T00:22:18.756Z,17.31
2022-08-22T00:25:03.492Z,17.28
2022-08-22T00:28:15.279Z,17.26
2022-08-22T00:31:22.955Z,17.22
2022-08-22T00:34:26.917Z,17.19
2022-08-22T00:37:38.328Z,17.17
2022-08-22T00:40:59.574Z,17.16
2022-08-22T00:44:14.853Z,17.15
2022-08-22T00:47:10.294Z,17.13
2022-08-22T00:49:51.035Z,17.14
2022-08-22T00:52:59.146Z,17.13
2022-08-22T00:55:57.210Z,17.11
2022-08-22T00:58:50.609Z,17.10
2022-08-22T01:01:42.188Z,17.08
2022-08-22T01:04:55.431Z,17.09
2022-08-22T01:08:28.902Z,17.08
2022-08-22T01:11:07.254Z,17.07
2022-08-22T01:14:34.412Z,17.09
2022-08-22T01:17:10.264Z,17.08
2022-08-22T01:20:07.420Z,17.06
2022-08-22T01:23:25.053Z,17.06
2022-08-22T01:26:21.146Z,17.06
2022-08-22T01:29:49.565Z,17.05
2022-08-22T01:33:05.995Z,17.03
2022-08-22T01:36:14.084Z,17.03
2022-08-22T01:39:03.478Z,17.03
2022-08-22T01:41:54.665Z,17.04
2022-08-22T01:45:23.248Z,17.03
2022-08-22T01:48:38.903Z,17.03
2022-08-22T01:51:21.354Z,17.03
2022-08-22T01:55:08.680Z,17.00
2022-08-22T01:58:25.933Z,16.98
2022-08-22T02:01:21.264Z,16.99
2022-08-22T02:04:28.750Z,16.99
2022-08-22T02:07:18.265Z,16.97
2022-08-22T02:10:30.476Z,16.93
2022-08-22T02:13:10.338Z,16.90
2022-08-22T02:16:17.118Z,16.87
2022-08-22T02:19:06.839Z,16.85
2022-08-22T02:22:22.379Z,16.85
2022-08-22T02:25:40.116Z,16.87
2022-08-22T02:28:39.387Z,16.86
2022-08-22T02:31:59.223Z,16.86
2022-08-22T02:34:39.666Z,16.84
2022-08-22T02:37:56.098Z,16.84
2022-08-22T02:41:04.277Z,16.83
2022-08-22T02:43:48.054Z,16.81
2022-08-22T02:46:48.590Z,16.82
2022-08-22T02:50:00.507Z,16.80
2022-08-22T02:53:13.991Z,16.81
2022-08-22T02:56:17.857Z,16.81
2022-08-22T02:59:00.284Z,16.83
2022-08-22T03:02:12.175Z,16.84
2022-08-22T03:05:30.484Z,16.87
2022-08-22T03:09:30.278Z,16.90
2022-08-22T03:12:57.557Z,16.92
2022-08-22T03:15:55.988Z,16.96
2022-08-22T03:19:01.982Z,16.99
2022-08-22T03:22:22.380Z,17.02
2022-08-22T03:25:51.224Z,17.03
2022-08-22T03:28:59.116Z,17.06
2022-08-22T03:32:19.176Z,17.09
2022-08-22T03:35:13.033Z,17.13
2022-08-22T03:38:29.554Z,17.16
2022-08-22T03:41:15.676Z,17.20
2022-08-22T03:44:35.750Z,17.23
2022-08-22T03:47:49.303Z,17.25
2022-08-22T03:50:36.087Z,17.26
2022-08-22T03:54:00.821Z,17.31
2022-08-22T03:57:06.745Z,17.34
2022-08-22T04:00:22.867Z,17.37
2022-08-22T04:03:22.378Z,17.39
2022-08-22T04:06:48.407Z,17.42
2022-08-22T04:10:15.129Z,17.43
2022-08-22T04:13:32.922Z,17.47
2022-08-22T04:16:47.642Z,17.51
2022-08-22T04:20:16.809Z,17.53
2022-08-22T04:23:41.023Z,17.57
2022-08-22T04:27:17.527Z,17.60
2022-08-22T04:30:07.795Z,17.65
2022-08-22T04:33:28.718Z,17.69
2022-08-22T04:36:35.582Z,17.74
2022-08-22T04:39:14.920Z,17.80
2022-08-22T04:42:32.259Z,17.85
2022-08-22T04:45:18.017Z,17.91
2022-08-22T04:48:01.391Z,17.96
2022-08-22T04:50:43.149Z,18.01
2022-08-22T04:53:35.867Z,18.05
2022-08-22T04:56:35.846Z,18.09
2022-08-22T04:59:20.120Z,18.13
2022-08-22T05:01:58.815Z,18.20
2022-08-22T05:04:53.596Z,18.25
2022-08-22T05:07:36.111Z,18.30
2022-08-22T05:10:14.330Z,18.35
2022-08-22T05:13:32.736Z,18.42
2022-08-22T05:16:37.937Z,18.49
2022-08-22T05:19:31.182Z,18.57
2022-08-22T05:22:11.526Z,18.63
2022-08-22T05:24:49.338Z,18.71
2022-08-22T05:27:36.263Z,18.79
2022-08-22T05:30:13.668Z,18.86
2022-08-22T05:32:55.997Z,18.93
2022-08-22T05:35:38.223Z,18.99
2022-08-22T05:38:14.649Z,19.05
2022-08-22T05:41:00.491Z,19.12
2022-08-22T05:43:39.150Z,19.21
2022-08-22T05:46:35.575Z,19.29
2022-08-22T05:49:19.693Z,19.37
2022-08-22T05:52:07.835Z,19.44
2022-08-22T05:54:53.018Z,19.51
2022-08-22T05:57:43.023Z,19.58
2022-08-22T06:00:26.219Z,19.64
2022-08-22T06:03:37.813Z,19.69
2022-08-22T06:06:17.946Z,19.77
2022-08-22T06:09:08.603Z,19.83
2022-08-22T06:11:51.750Z,19.91
2022-08-22T06:14:46.501Z,19.98
2022-08-22T06:17:36.473Z,20.07
2022-08-22T06:20:16.746Z,20.13
2022-08-22T06:22:57.964Z,20.22
2022-08-22T06:25:39.293Z,20.31
2022-08-22T06:28:28.934Z,20.41
2022-08-22T06:31:32.475Z,20.50
2022-08-22T06:34:23.250Z,20.62
2022-08-22T06:37:44.406Z,20.74
2022-08-22T06:40:29.093Z,20.87
2022-08-22T06:43:26.365Z,20.97
2022-08-22T06:46:01.413Z,21.09
2022-08-22T06:48:41.476Z,21.19
2022-08-22T06:51:39.435Z,21.26
2022-08-22T06:54:43.026Z,21.31
2022-08-22T06:57:36.303Z,21.36
2022-08-22T07:00:27.733Z,21.42
2022-08-22T07:03:27.980Z,21.45
2022-08-22T07:05:57.495Z,21.51
2022-08-22T07:08:30.062Z,21.58
2022-08-22T07:11:25.975Z,21.65
2022-08-22T07:14:27.135Z,21.72
2022-08-22T07:17:09.847Z,21.80
2022-08-22T07:20:23.999Z,21.91
2022-08-22T07:23:03.385Z,22.04
2022-08-22T07:26:01.820Z,22.19
2022-08-22T07:29:11.497Z,22.27
2022-08-22T07:32:30.148Z,22.34
2022-08-22T07:35:23.507Z,22.43
2022-08-22T07:38:47.733Z,22.49
2022-08-22T07:42:03.287Z,22.60
2022-08-22T07:45:32.266Z,22.72
2022-08-22T07:49:08.188Z,22.94
2022-08-22T07:52:13.891Z,22.99
2022-08-22T07:55:03.965Z,23.00
2022-08-22T07:58:04.304Z,23.05
2022-08-22T08:01:09.260Z,23.08
2022-08-22T08:03:59.415Z,23.10
2022-08-22T08:07:32.307Z,23.06
2022-08-22T08:10:20.044Z,23.01
2022-08-22T08:13:17.191Z,23.04
2022-08-22T08:15:55.197Z,23.09
2022-08-22T08:18:41.017Z,23.09
2022-08-22T08:21:29.977Z,23.13
2022-08-22T08:24:25.027Z,23.17
2022-08-22T08:27:32.237Z,23.14
2022-08-22T08:30:25.646Z,23.12
2022-08-22T08:33:24.803Z,23.17
2022-08-22T08:36:16.611Z,23.23
2022-08-22T08:39:12.760Z,23.28
2022-08-22T08:43:13.251Z,23.31
2022-08-22T08:46:18.850Z,23.30
2022-08-22T08:49:25.221Z,23.29
2022-08-22T08:52:31.435Z,23.27
2022-08-22T08:55:47.894Z,23.21
2022-08-22T08:59:10.204Z,23.19
2022-08-22T09:02:20.466Z,23.22
2022-08-22T09:05:41.965Z,23.25
2022-08-22T09:08:45.726Z,23.27
2022-08-22T09:11:28.364Z,23.36
2022-08-22T09:14:31.840Z,23.48
2022-08-22T09:18:00.661Z,23.57
2022-08-22T09:20:51.792Z,23.67
2022-08-22T09:24:12.699Z,23.74
2022-08-22T09:27:02.335Z,23.83
2022-08-22T09:29:54.786Z,23.92
2022-08-22T09:32:58.689Z,23.94
2022-08-22T09:36:05.324Z,24.01
2022-08-22T09:39:02.033Z,24.12
2022-08-22T09:42:12.955Z,24.20
2022-08-22T09:45:20.184Z,24.29
2022-08-22T09:48:07.088Z,24.34
2022-08-22T09:51:31.856Z,24.38
2022-08-22T09:54:40.607Z,24.51
2022-08-22T09:57:27.217Z,24.69
2022-08-22T10:00:06.287Z,24.91
2022-08-22T10:03:10.780Z,25.07
2022-08-22T10:05:56.156Z,25.21
2022-08-22T10:08:57.905Z,25.30
2022-08-22T10:11:54.475Z,25.40
2022-08-22T10:15:06.985Z,25.51
2022-08-22T10:18:10.472Z,25.60
2022-08-22T10:21:23.924Z,25.67
2022-08-22T10:24:43.795Z,25.77
2022-08-22T10:27:54.865Z,25.87
2022-08-22T10:30:48.638Z,25.88
2022-08-22T10:34:24.683Z,25.88
2022-08-22T10:37:05.951Z,25.93
2022-08-22T10:39:49.909Z,25.94
2022-08-22T10:42:45.164Z,25.99
2022-08-22T10:46:13.752Z,26.07
2022-08-22T10:49:32.206Z,26.13
2022-08-22T10:52:23.731Z,26.17
2022-08-22T10:55:30.378Z,26.28
2022-08-22T10:58:12.989Z,26.43
2022-08-22T11:01:01.660Z,26.46
2022-08-22T11:03:55.722Z,26.41
2022-08-22T11:06:52.967Z,26.27
2022-08-22T11:09:43.889Z,26.18
2022-08-22T11:12:42.989Z,26.12
2022-08-22T11:15:54.372Z,26.19
2022-08-22T11:19:14.950Z,26.34
2022-08-22T11:22:08.060Z,26.41
2022-08-22T11:25:35.963Z,26.44
2022-08-22T11:28:26.300Z,26.54
2022-08-22T11:31:21.881Z,26.50
2022-08-22T11:34:11.003Z,26.49
2022-08-22T11:36:56.154Z,26.52
2022-08-22T11:39:47.184Z,26.57
2022-08-22T11:42:47.704Z,26.60
2022-08-22T11:45:21.840Z,26.52
2022-08-22T11:48:42.923Z,26.51
2022-08-22T11:51:50.805Z,26.63
2022-08-22T11:54:44.609Z,26.60
2022-08-22T11:57:47.797Z,26.53
2022-08-22T12:00:26.653Z,26.52
2022-08-22T12:03:19.610Z,26.46
2022-08-22T12:06:11.516Z,26.30
2022-08-22T12:08:49.819Z,26.18
2022-08-22T12:11:39.906Z,26.08
2022-08-22T12:14:27.024Z,26.05
2022-08-22T12:17:50.686Z,26.05
2022-08-22T12:20:34.150Z,26.00
2022-08-22T12:23:43.246Z,25.94
2022-08-22T12:26:31.251Z,25.79
2022-08-22T12:29:15.459Z,25.80
2022-08-22T12:32:07.484Z,25.97
2022-08-22T12:35:30.205Z,26.19
2022-08-22T12:38:28.469Z,26.42
2022-08-22T12:41:36.183Z,26.47
2022-08-22T12:44:29.666Z,26.45
2022-08-22T12:47:09.275Z,26.64
2022-08-22T12:49:52.324Z,27.01
2022-08-22T12:52:28.723Z,27.44
2022-08-22T12:55:16.352Z,27.69
2022-08-22T12:58:01.269Z,27.69
2022-08-22T13:00:34.838Z,27.50
2022-08-22T13:03:09.741Z,27.41
2022-08-22T13:05:44.744Z,27.31
2022-08-22T13:08:37.375Z,27.22
2022-08-22T13:11:22.565Z,27.05
2022-08-22T13:14:00.909Z,26.80
2022-08-22T13:16:48.966Z,26.81
2022-08-22T13:19:24.489Z,26.72
2022-08-22T13:22:09.360Z,26.58
2022-08-22T13:24:52.845Z,26.27
2022-08-22T13:27:51.050Z,26.06
2022-08-22T13:30:41.438Z,25.95
2022-08-22T13:33:39.075Z,25.83
2022-08-22T13:36:18.678Z,25.68
2022-08-22T13:39:12.989Z,25.55
2022-08-22T13:41:58.913Z,25.42
2022-08-22T13:44:42.790Z,25.37
2022-08-22T13:47:16.686Z,25.27
2022-08-22T13:50:04.596Z,25.20
2022-08-22T13:52:37.970Z,25.12
2022-08-22T13:55:13.732Z,25.07
2022-08-22T13:58:11.486Z,24.94
2022-08-22T14:00:48.707Z,24.79
2022-08-22T14:03:40.667Z,24.69
2022-08-22T14:06:37.550Z,24.61
2022-08-22T14:09:29.573Z,24.50
2022-08-22T14:12:26.956Z,24.36
2022-08-22T14:15:03.782Z,24.25
2022-08-22T14:17:43.054Z,24.20
2022-08-22T14:20:32.439Z,24.19
2022-08-22T14:23:42.031Z,24.17
2022-08-22T14:26:37.167Z,24.13
2022-08-22T14:29:20.625Z,24.05
2022-08-22T14:32:12.156Z,24.02
2022-08-22T14:34:45.474Z,23.97
2022-08-22T14:37:24.314Z,23.91
2022-08-22T14:40:02.266Z,23.79
2022-08-22T14:42:46.564Z,23.72
2022-08-22T14:45:28.613Z,23.67
2022-08-22T14:48:31.488Z,23.64
2022-08-22T14:51:25.428Z,23.61
2022-08-22T14:54:14.172Z,23.55
2022-08-22T14:56:53.374Z,23.51
2022-08-22T14:59:50.093Z,23.49
2022-08-22T15:02:29.890Z,23.46
2022-08-22T15:05:13.123Z,23.37
2022-08-22T15:07:43.083Z,23.33
2022-08-22T15:10:32.944Z,23.29
2022-08-22T15:13:08.276Z,23.25
2022-08-22T15:15:53.558Z,23.23
2022-08-22T15:18:34.828Z,23.18
2022-08-22T15:21:18.515Z,23.17
2022-08-22T15:23:48.393Z,23.15
2022-08-22T15:26:28.021Z,23.12
2022-08-22T15:29:08.279Z,23.07
2022-08-22T15:31:47.494Z,23.02
2022-08-22T15:34:39.342Z,23.01
2022-08-22T15:37:52.672Z,22.97
2022-08-22T15:40:52.794Z,22.90
2022-08-22T15:43:42.268Z,22.83
2022-08-22T15:46:24.062Z,22.80
2022-08-22T15:49:39.982Z,22.79
2022-08-22T15:53:07.567Z,22.72
2022-08-22T15:56:05.369Z,22.63
2022-08-22T15:58:48.783Z,22.58
2022-08-22T16:01:27.152Z,22.52
2022-08-22T16:04:05.087Z,22.49
2022-08-22T16:06:50.613Z,22.46
2022-08-22T16:09:46.066Z,22.42
2022-08-22T16:12:39.975Z,22.37
2022-08-22T16:15:52.635Z,22.31
2022-08-22T16:18:42.776Z,22.23
2022-08-22T16:21:37.513Z,22.15
2022-08-22T16:24:17.986Z,22.11
2022-08-22T16:26:50.721Z,22.09
2022-08-22T16:29:41.348Z,22.08
2022-08-22T16:32:28.092Z,22.05
2022-08-22T16:34:56.922Z,22.01
2022-08-22T16:37:51.819Z,21.97
2022-08-22T16:40:27.838Z,21.93
2022-08-22T16:43:29.151Z,21.88
2022-08-22T16:46:36.468Z,21.81
2022-08-22T16:49:23.481Z,21.78
2022-08-22T16:52:33.381Z,21.76
2022-08-22T16:56:00.168Z,21.72
2022-08-22T16:59:23.437Z,21.68
2022-08-22T17:02:01.231Z,21.64
2022-08-22T17:04:57.343Z,21.63
2022-08-22T17:07:45.605Z,21.61
2022-08-22T17:10:46.239Z,21.60
2022-08-22T17:13:57.250Z,21.59
2022-08-22T17:16:57.265Z,21.56
2022-08-22T17:20:23.580Z,21.53
2022-08-22T17:23:27.243Z,21.50
2022-08-22T17:26:23.617Z,21.51
2022-08-22T17:29:55.687Z,21.48
2022-08-22T17:33:16.903Z,21.45
2022-08-22T17:36:26.978Z,21.43
